Eau Galle, Wisconsin
Current Conditions -  °F | °C
As of 10:55 AM on Monday 22 Dec 2014 (Local Time) from KLUM Reporting Station
Haze Haze  
Wind Chill: 28°   Ceiling: 800
Heat Index: 36°   Visibility: 2.5mi
Dew Point: 34°   Wind: 12mph
Humidity: 93%   Direction: 110°ESE
Pressure: 29.72"   Gusts: NA
Location:  44.69°N, 92.01°W
Report Text: KLUM 221655Z AUTO 11010KT 2 1/2SM BR OVC008 02/01 A2972 RMK AO2 T00200010
Loading
Personal Weather Stations






























Interactive Weather Map New forecast layout! Learn more

10-Day Weather Forecast

Advertisements
Track Severe Weather on mobile